createdAt,value
2022-08-26T00:00:12.833Z,33.94
2022-08-26T00:02:45.505Z,33.93
2022-08-26T00:05:16.389Z,33.94
2022-08-26T00:07:47.201Z,33.94
2022-08-26T00:10:18.438Z,33.95
2022-08-26T00:12:49.259Z,33.94
2022-08-26T00:15:23.093Z,33.95
2022-08-26T00:17:56.723Z,33.95
2022-08-26T00:20:31.905Z,33.95
2022-08-26T00:23:03.262Z,33.95
2022-08-26T00:25:34.315Z,33.95
2022-08-26T00:28:05.222Z,33.94
2022-08-26T00:30:37.976Z,33.92
2022-08-26T00:33:10.959Z,33.91
2022-08-26T00:35:43.832Z,33.90
2022-08-26T00:38:16.247Z,33.89
2022-08-26T00:40:54.574Z,33.88
2022-08-26T00:43:26.097Z,33.87
2022-08-26T00:46:07.900Z,33.87
2022-08-26T00:48:45.632Z,33.86
2022-08-26T00:51:22.982Z,33.86
2022-08-26T00:54:00.595Z,33.83
2022-08-26T00:56:40.659Z,33.84
2022-08-26T00:59:17.583Z,33.82
2022-08-26T01:01:48.684Z,33.84
2022-08-26T01:04:24.670Z,33.84
2022-08-26T01:06:58.261Z,33.83
2022-08-26T01:09:29.544Z,33.84
2022-08-26T01:12:04.610Z,33.82
2022-08-26T01:14:39.038Z,33.80
2022-08-26T01:17:12.447Z,33.79
2022-08-26T01:19:53.147Z,33.80
2022-08-26T01:22:28.997Z,33.79
2022-08-26T01:25:04.868Z,33.79
2022-08-26T01:27:37.399Z,33.78
2022-08-26T01:30:09.904Z,33.80
2022-08-26T01:32:42.011Z,33.78
2022-08-26T01:35:12.888Z,33.80
2022-08-26T01:37:43.753Z,33.79
2022-08-26T01:40:26.551Z,33.78
2022-08-26T01:42:57.894Z,33.74
2022-08-26T01:45:33.225Z,33.75
2022-08-26T01:48:12.244Z,33.74
2022-08-26T01:50:43.415Z,33.74
2022-08-26T01:53:20.023Z,33.75
2022-08-26T01:55:59.785Z,33.74
2022-08-26T01:58:36.391Z,33.73
2022-08-26T02:01:09.717Z,33.74
2022-08-26T02:03:54.120Z,33.74
2022-08-26T02:06:24.799Z,33.74
2022-08-26T02:09:00.370Z,33.74
2022-08-26T02:11:34.967Z,33.73
2022-08-26T02:14:14.792Z,33.73
2022-08-26T02:16:49.315Z,33.72
2022-08-26T02:19:24.947Z,33.73
2022-08-26T02:21:56.509Z,33.72
2022-08-26T02:24:31.107Z,33.72
2022-08-26T02:27:03.902Z,33.71
2022-08-26T02:29:41.042Z,33.72
2022-08-26T02:32:12.974Z,33.71
2022-08-26T02:34:49.655Z,33.71
2022-08-26T02:37:19.948Z,33.72
2022-08-26T02:39:53.678Z,33.71
2022-08-26T02:42:26.036Z,33.72
2022-08-26T02:44:56.854Z,33.71
2022-08-26T02:47:29.275Z,33.70
2022-08-26T02:50:03.309Z,33.68
2022-08-26T02:52:34.608Z,33.69
2022-08-26T02:55:05.302Z,33.68
2022-08-26T02:57:38.261Z,33.66
2022-08-26T03:00:12.479Z,33.67
2022-08-26T03:02:43.148Z,33.65
2022-08-26T03:05:16.604Z,33.66
2022-08-26T03:07:47.801Z,33.65
2022-08-26T03:10:19.835Z,33.66
2022-08-26T03:12:53.119Z,33.65
2022-08-26T03:15:24.925Z,33.64
2022-08-26T03:17:57.715Z,33.64
2022-08-26T03:20:28.474Z,33.64
2022-08-26T03:22:58.667Z,33.64
2022-08-26T03:25:30.489Z,33.64
2022-08-26T03:28:03.567Z,33.63
2022-08-26T03:30:44.731Z,33.63
2022-08-26T03:33:18.172Z,33.62
2022-08-26T03:35:50.591Z,33.63
2022-08-26T03:38:22.612Z,33.62
2022-08-26T03:40:52.973Z,33.63
2022-08-26T03:43:27.273Z,33.62
2022-08-26T03:45:57.869Z,33.62
2022-08-26T03:48:28.797Z,33.62
2022-08-26T03:51:01.575Z,33.63
2022-08-26T03:53:34.022Z,33.63
2022-08-26T03:56:07.678Z,33.65
2022-08-26T03:58:42.820Z,33.66
2022-08-26T04:01:15.693Z,33.67
2022-08-26T04:04:02.203Z,33.67
2022-08-26T04:06:37.864Z,33.67
2022-08-26T04:09:12.675Z,33.68
2022-08-26T04:11:50.763Z,33.70
2022-08-26T04:14:26.473Z,33.72
2022-08-26T04:16:58.229Z,33.72
2022-08-26T04:19:29.686Z,33.74
2022-08-26T04:22:00.565Z,33.75
2022-08-26T04:24:31.556Z,33.76
2022-08-26T04:27:04.219Z,33.77
2022-08-26T04:29:37.097Z,33.80
2022-08-26T04:32:11.172Z,33.80
2022-08-26T04:34:42.607Z,33.82
2022-08-26T04:37:14.536Z,33.84
2022-08-26T04:39:45.470Z,33.87
2022-08-26T04:42:21.044Z,33.91
2022-08-26T04:44:59.543Z,33.94
2022-08-26T04:47:32.496Z,33.97
2022-08-26T04:50:04.517Z,34.00
2022-08-26T04:52:38.991Z,34.04
2022-08-26T04:55:11.128Z,34.05
2022-08-26T04:57:42.493Z,34.06
2022-08-26T05:00:26.184Z,34.10
2022-08-26T05:02:56.716Z,34.12
2022-08-26T05:05:27.503Z,34.16
2022-08-26T05:07:57.996Z,34.19
2022-08-26T05:10:29.875Z,34.17
2022-08-26T05:13:01.335Z,34.17
2022-08-26T05:15:34.725Z,34.17
2022-08-26T05:18:05.574Z,34.22
2022-08-26T05:20:40.865Z,34.28
2022-08-26T05:23:11.099Z,34.32
2022-08-26T05:25:43.505Z,34.37
2022-08-26T05:28:16.725Z,34.42
2022-08-26T05:30:49.564Z,34.46
2022-08-26T05:33:20.914Z,34.47
2022-08-26T05:35:53.237Z,34.49
2022-08-26T05:38:25.009Z,34.49
2022-08-26T05:41:01.480Z,34.47
2022-08-26T05:43:34.675Z,34.46
2022-08-26T05:46:11.504Z,34.43
2022-08-26T05:48:44.570Z,34.40
2022-08-26T05:51:16.841Z,34.40
2022-08-26T05:53:54.489Z,34.41
2022-08-26T05:56:28.330Z,34.43
2022-08-26T05:59:03.245Z,34.45
2022-08-26T06:01:37.036Z,34.49
2022-08-26T06:04:08.284Z,34.52
2022-08-26T06:06:43.036Z,34.57
2022-08-26T06:09:18.245Z,34.57
2022-08-26T06:11:49.135Z,34.59
2022-08-26T06:14:20.195Z,34.59
2022-08-26T06:16:52.508Z,34.61
2022-08-26T06:19:23.551Z,34.65
2022-08-26T06:21:55.229Z,34.69
2022-08-26T06:24:43.811Z,34.73
2022-08-26T06:27:15.286Z,34.78
2022-08-26T06:29:46.668Z,34.84
2022-08-26T06:32:18.485Z,34.91
2022-08-26T06:34:49.590Z,34.95
2022-08-26T06:37:20.332Z,34.96
2022-08-26T06:39:51.297Z,34.98
2022-08-26T06:42:22.963Z,34.98
2022-08-26T06:44:53.713Z,34.99
2022-08-26T06:47:26.464Z,34.99
2022-08-26T06:49:57.818Z,35.01
2022-08-26T06:52:29.001Z,35.05
2022-08-26T06:55:00.013Z,35.12
2022-08-26T06:57:33.330Z,35.19
2022-08-26T07:00:11.484Z,35.25
2022-08-26T07:02:46.819Z,35.32
2022-08-26T07:05:18.731Z,35.37
2022-08-26T07:07:50.929Z,35.43
2022-08-26T07:10:22.114Z,35.48
2022-08-26T07:12:52.996Z,35.52
2022-08-26T07:15:31.096Z,35.55
2022-08-26T07:18:06.151Z,35.56
2022-08-26T07:20:40.697Z,35.59
2022-08-26T07:23:14.328Z,35.62
2022-08-26T07:25:47.859Z,35.65
2022-08-26T07:28:19.126Z,35.67
2022-08-26T07:30:50.560Z,35.71
2022-08-26T07:33:23.603Z,35.79
2022-08-26T07:35:54.739Z,35.81
2022-08-26T07:38:25.188Z,35.85
2022-08-26T07:40:56.047Z,35.90
2022-08-26T07:43:26.792Z,35.94
2022-08-26T07:46:00.489Z,35.99
2022-08-26T07:48:32.588Z,36.02
2022-08-26T07:51:06.568Z,36.02
2022-08-26T07:53:39.013Z,36.03
2022-08-26T07:56:09.738Z,36.01
2022-08-26T07:58:42.315Z,36.02
2022-08-26T08:01:13.480Z,36.04
2022-08-26T08:03:46.645Z,36.09
2022-08-26T08:06:21.232Z,36.13
2022-08-26T08:08:54.409Z,36.18
2022-08-26T08:11:27.817Z,36.22
2022-08-26T08:13:58.442Z,36.26
2022-08-26T08:16:32.279Z,36.32
2022-08-26T08:19:06.751Z,36.35
2022-08-26T08:21:37.580Z,36.40
2022-08-26T08:24:08.479Z,36.42
2022-08-26T08:26:41.803Z,36.45
2022-08-26T08:29:12.800Z,36.47
2022-08-26T08:31:56.454Z,36.49
2022-08-26T08:34:31.870Z,36.51
2022-08-26T08:37:06.167Z,36.51
2022-08-26T08:39:39.792Z,36.50
2022-08-26T08:42:40.857Z,36.52
2022-08-26T08:45:16.805Z,36.47
2022-08-26T08:47:54.899Z,36.48
2022-08-26T08:50:34.666Z,36.50
2022-08-26T08:53:16.294Z,36.52
2022-08-26T08:56:01.217Z,36.54
2022-08-26T08:58:51.944Z,36.56
2022-08-26T09:01:36.957Z,36.61
2022-08-26T09:04:41.927Z,36.64
2022-08-26T09:07:22.563Z,36.66
2022-08-26T09:10:00.834Z,36.68
2022-08-26T09:12:37.031Z,36.71
2022-08-26T09:15:21.570Z,36.72
2022-08-26T09:18:11.134Z,36.73
2022-08-26T09:20:57.298Z,36.71
2022-08-26T09:23:31.279Z,36.72
2022-08-26T09:26:05.778Z,36.73
2022-08-26T09:28:36.571Z,36.73
2022-08-26T09:31:17.422Z,36.74
2022-08-26T09:33:48.331Z,36.72
2022-08-26T09:36:41.252Z,36.73
2022-08-26T09:39:38.041Z,36.71
2022-08-26T09:42:16.800Z,36.68
2022-08-26T09:45:00.591Z,36.64
2022-08-26T09:47:36.182Z,36.60
2022-08-26T09:50:21.318Z,36.59
2022-08-26T09:53:12.876Z,36.55
2022-08-26T09:55:51.695Z,36.51
2022-08-26T09:58:39.126Z,36.50
2022-08-26T10:01:27.675Z,36.50
2022-08-26T10:04:12.731Z,36.51
2022-08-26T10:06:46.948Z,36.52
2022-08-26T10:09:21.122Z,36.55
2022-08-26T10:11:59.235Z,36.56
2022-08-26T10:14:36.785Z,36.56
2022-08-26T10:17:18.472Z,36.52
2022-08-26T10:19:57.797Z,36.51
2022-08-26T10:22:38.620Z,36.53
2022-08-26T10:25:16.301Z,36.56
2022-08-26T10:27:56.999Z,36.57
2022-08-26T10:30:36.477Z,36.53
2022-08-26T10:33:11.873Z,36.51
2022-08-26T10:35:54.361Z,36.49
2022-08-26T10:38:33.221Z,36.44
2022-08-26T10:41:11.564Z,36.43
2022-08-26T10:43:54.417Z,36.44
2022-08-26T10:46:31.254Z,36.47
2022-08-26T10:49:08.392Z,36.45
2022-08-26T10:51:45.739Z,36.44
2022-08-26T10:54:25.397Z,36.46
2022-08-26T10:57:05.547Z,36.48
2022-08-26T10:59:58.944Z,36.47
2022-08-26T11:02:41.117Z,36.48
2022-08-26T11:05:24.695Z,36.47
2022-08-26T11:08:16.515Z,36.45
2022-08-26T11:11:00.645Z,36.43
2022-08-26T11:14:07.732Z,36.40
2022-08-26T11:16:57.623Z,36.35
2022-08-26T11:20:33.844Z,36.32
2022-08-26T11:23:50.831Z,36.30
2022-08-26T11:26:55.581Z,36.28
2022-08-26T11:30:08.139Z,36.23
2022-08-26T11:32:55.420Z,36.23
2022-08-26T11:35:53.731Z,36.22
2022-08-26T11:38:32.320Z,36.19
2022-08-26T11:41:21.118Z,36.17
2022-08-26T11:43:53.437Z,36.14
2022-08-26T11:46:31.349Z,36.16
2022-08-26T11:49:12.044Z,36.16
2022-08-26T11:51:46.418Z,36.14
2022-08-26T11:54:30.501Z,36.11
2022-08-26T11:57:11.645Z,36.08
2022-08-26T11:59:44.656Z,36.03
2022-08-26T12:02:20.690Z,36.00
2022-08-26T12:04:56.825Z,36.00
2022-08-26T12:07:32.430Z,36.01
2022-08-26T12:10:07.777Z,35.99
2022-08-26T12:12:40.817Z,35.95
2022-08-26T12:15:19.458Z,35.91
2022-08-26T12:17:54.603Z,35.90
2022-08-26T12:20:48.874Z,35.92
2022-08-26T12:23:40.033Z,35.91
2022-08-26T12:26:21.634Z,35.89
2022-08-26T12:28:58.504Z,35.85
2022-08-26T12:31:36.039Z,35.83
2022-08-26T12:34:17.548Z,35.83
2022-08-26T12:37:01.234Z,35.85
2022-08-26T12:39:47.570Z,35.86
2022-08-26T12:42:44.201Z,35.84
2022-08-26T12:45:15.922Z,35.81
2022-08-26T12:47:48.787Z,35.76
2022-08-26T12:50:24.584Z,35.75
2022-08-26T12:53:03.239Z,35.76
2022-08-26T12:55:45.452Z,35.76
2022-08-26T12:58:33.077Z,35.76
2022-08-26T13:01:26.202Z,35.73
2022-08-26T13:03:56.940Z,35.68
2022-08-26T13:06:34.973Z,35.65
2022-08-26T13:09:32.220Z,35.64
2022-08-26T13:12:03.112Z,35.63
2022-08-26T13:14:34.416Z,35.64
2022-08-26T13:17:05.746Z,35.65
2022-08-26T13:19:36.982Z,35.64
2022-08-26T13:22:08.902Z,35.60
2022-08-26T13:24:45.892Z,35.57
2022-08-26T13:27:21.680Z,35.57
2022-08-26T13:29:53.910Z,35.56
2022-08-26T13:32:26.857Z,35.56
2022-08-26T13:35:00.815Z,35.57
2022-08-26T13:37:36.917Z,35.56
2022-08-26T13:40:12.079Z,35.55
2022-08-26T13:42:49.579Z,35.52
2022-08-26T13:45:21.767Z,35.52
2022-08-26T13:47:52.537Z,35.52
2022-08-26T13:50:23.256Z,35.48
2022-08-26T13:52:54.195Z,35.47
2022-08-26T13:55:28.401Z,35.45
2022-08-26T13:58:00.415Z,35.41
2022-08-26T14:00:34.452Z,35.35
2022-08-26T14:03:08.220Z,35.33
2022-08-26T14:05:42.496Z,35.33
2022-08-26T14:08:13.232Z,35.33
2022-08-26T14:10:45.458Z,35.34
2022-08-26T14:13:16.611Z,35.32
2022-08-26T14:15:47.693Z,35.29
2022-08-26T14:18:22.936Z,35.26
2022-08-26T14:20:57.907Z,35.25
2022-08-26T14:23:29.144Z,35.21
2022-08-26T14:26:03.665Z,35.18
2022-08-26T14:28:35.606Z,35.15
2022-08-26T14:31:08.005Z,35.14
2022-08-26T14:33:41.027Z,35.14
2022-08-26T14:36:31.200Z,35.11
2022-08-26T14:39:05.198Z,35.10
2022-08-26T14:41:54.042Z,35.10
2022-08-26T14:44:30.045Z,35.06
2022-08-26T14:47:03.226Z,35.02
2022-08-26T14:49:34.396Z,34.99
2022-08-26T14:52:05.896Z,34.97
2022-08-26T14:54:34.823Z,34.93
2022-08-26T14:57:12.828Z,34.92
2022-08-26T14:59:49.872Z,34.90
2022-08-26T15:02:27.717Z,34.88
2022-08-26T15:05:04.679Z,34.87
2022-08-26T15:07:35.535Z,34.86
2022-08-26T15:10:07.967Z,34.86
2022-08-26T15:12:41.709Z,34.85
2022-08-26T15:15:19.059Z,34.83
2022-08-26T15:17:49.474Z,34.79
2022-08-26T15:20:20.532Z,34.78
2022-08-26T15:22:52.157Z,34.78
2022-08-26T15:25:25.414Z,34.77
2022-08-26T15:27:58.008Z,34.76
2022-08-26T15:30:29.600Z,34.75
2022-08-26T15:33:00.953Z,34.72
2022-08-26T15:35:32.998Z,34.68
2022-08-26T15:38:09.937Z,34.65
2022-08-26T15:40:41.585Z,34.64
2022-08-26T15:43:28.848Z,34.60
2022-08-26T15:46:02.950Z,34.56
2022-08-26T15:48:33.741Z,34.55
2022-08-26T15:51:07.803Z,34.52
2022-08-26T15:53:39.439Z,34.50
2022-08-26T15:56:10.583Z,34.49
2022-08-26T15:58:43.190Z,34.49
2022-08-26T16:01:18.076Z,34.49
2022-08-26T16:03:59.643Z,34.46
2022-08-26T16:06:34.645Z,34.45
2022-08-26T16:09:06.057Z,34.43
2022-08-26T16:11:38.417Z,34.41
2022-08-26T16:14:11.384Z,34.39
2022-08-26T16:16:42.782Z,34.38
2022-08-26T16:19:14.190Z,34.39
2022-08-26T16:21:48.379Z,34.39
2022-08-26T16:24:26.002Z,34.40
2022-08-26T16:26:59.532Z,34.41
2022-08-26T16:29:33.657Z,34.43
2022-08-26T16:32:09.268Z,34.43
2022-08-26T16:34:47.092Z,34.40
2022-08-26T16:37:28.605Z,34.39
2022-08-26T16:39:59.932Z,34.38
2022-08-26T16:42:31.968Z,34.37
2022-08-26T16:45:05.932Z,34.36
2022-08-26T16:47:39.390Z,34.35
2022-08-26T16:50:14.021Z,34.33
2022-08-26T16:52:45.392Z,34.29
2022-08-26T16:55:18.764Z,34.26
2022-08-26T16:57:50.664Z,34.23
2022-08-26T17:00:28.819Z,34.21
2022-08-26T17:03:01.304Z,34.21
2022-08-26T17:05:33.140Z,34.20
2022-08-26T17:08:04.007Z,34.22
2022-08-26T17:10:35.578Z,34.22
2022-08-26T17:13:05.951Z,34.23
2022-08-26T17:15:39.276Z,34.25
2022-08-26T17:18:10.742Z,34.25
2022-08-26T17:20:41.675Z,34.22
2022-08-26T17:23:12.319Z,34.20
2022-08-26T17:25:43.690Z,34.19
2022-08-26T17:28:14.970Z,34.19
2022-08-26T17:30:49.597Z,34.20
2022-08-26T17:33:24.411Z,34.21
2022-08-26T17:35:56.249Z,34.23
2022-08-26T17:38:30.429Z,34.22
2022-08-26T17:41:02.272Z,34.20
2022-08-26T17:43:33.050Z,34.20
2022-08-26T17:46:09.281Z,34.18
2022-08-26T17:48:41.953Z,34.14
2022-08-26T17:51:15.957Z,34.09
2022-08-26T17:53:46.690Z,34.06
2022-08-26T17:56:19.660Z,34.07
2022-08-26T17:58:51.835Z,34.07
2022-08-26T18:01:27.307Z,34.05
2022-08-26T18:04:00.633Z,34.02
2022-08-26T18:06:33.366Z,34.00
2022-08-26T18:09:04.264Z,33.99
2022-08-26T18:11:35.100Z,33.99
2022-08-26T18:14:06.055Z,33.99
2022-08-26T18:16:42.177Z,34.01
2022-08-26T18:19:13.269Z,33.99
2022-08-26T18:21:43.947Z,34.00
2022-08-26T18:24:15.274Z,34.00
2022-08-26T18:26:49.508Z,34.00
2022-08-26T18:29:22.372Z,34.02
2022-08-26T18:31:55.704Z,34.03
2022-08-26T18:34:31.747Z,34.02
2022-08-26T18:37:02.365Z,34.00
2022-08-26T18:39:32.494Z,33.95
2022-08-26T18:42:03.183Z,33.93
2022-08-26T18:44:34.471Z,33.92
2022-08-26T18:47:08.659Z,33.93
2022-08-26T18:49:43.557Z,33.95
2022-08-26T18:52:14.711Z,33.95
2022-08-26T18:54:46.416Z,33.97
2022-08-26T18:57:17.265Z,33.98
2022-08-26T18:59:48.094Z,33.99
2022-08-26T19:02:20.946Z,34.01
2022-08-26T19:04:52.316Z,34.02
2022-08-26T19:07:23.077Z,34.03
2022-08-26T19:09:54.236Z,34.04
2022-08-26T19:12:26.918Z,34.04
2022-08-26T19:14:58.499Z,34.00
2022-08-26T19:17:33.149Z,33.96
2022-08-26T19:20:03.775Z,33.95
2022-08-26T19:22:35.163Z,33.92
2022-08-26T19:25:06.282Z,33.91
2022-08-26T19:27:37.005Z,33.90
2022-08-26T19:30:09.147Z,33.91
2022-08-26T19:32:41.949Z,33.91
2022-08-26T19:35:15.521Z,33.92
2022-08-26T19:37:46.610Z,33.93
2022-08-26T19:40:17.444Z,33.91
2022-08-26T19:42:50.465Z,33.92
2022-08-26T19:45:25.605Z,33.93
2022-08-26T19:47:57.948Z,33.93
2022-08-26T19:50:31.472Z,33.91
2022-08-26T19:53:04.524Z,33.89
2022-08-26T19:55:36.162Z,33.87
2022-08-26T19:58:07.209Z,33.83
2022-08-26T20:00:40.294Z,33.84
2022-08-26T20:03:15.961Z,33.85
2022-08-26T20:05:46.668Z,33.85
2022-08-26T20:08:20.465Z,33.85
2022-08-26T20:10:54.546Z,33.85
2022-08-26T20:13:27.409Z,33.85
2022-08-26T20:15:58.805Z,33.84
2022-08-26T20:18:49.496Z,33.85
2022-08-26T20:21:29.909Z,33.85
2022-08-26T20:24:05.356Z,33.85
2022-08-26T20:26:39.456Z,33.84
2022-08-26T20:29:11.162Z,33.83
2022-08-26T20:31:42.807Z,33.85
2022-08-26T20:34:17.217Z,33.87
2022-08-26T20:36:50.669Z,33.88
2022-08-26T20:39:23.784Z,33.87
2022-08-26T20:41:55.039Z,33.84
2022-08-26T20:44:25.707Z,33.80
2022-08-26T20:46:57.206Z,33.78
2022-08-26T20:49:31.254Z,33.76
2022-08-26T20:52:04.011Z,33.75
2022-08-26T20:54:34.884Z,33.74
2022-08-26T20:57:05.521Z,33.72
2022-08-26T20:59:37.462Z,33.70
2022-08-26T21:02:08.585Z,33.68
2022-08-26T21:04:41.542Z,33.67
2022-08-26T21:07:12.403Z,33.67
2022-08-26T21:09:43.161Z,33.68
2022-08-26T21:12:14.906Z,33.66
2022-08-26T21:14:49.041Z,33.65
2022-08-26T21:17:20.920Z,33.64
2022-08-26T21:19:53.982Z,33.65
2022-08-26T21:22:25.603Z,33.64
2022-08-26T21:24:56.924Z,33.65
2022-08-26T21:27:28.012Z,33.64
2022-08-26T21:29:59.080Z,33.66
2022-08-26T21:32:29.902Z,33.65
2022-08-26T21:35:03.876Z,33.67
2022-08-26T21:37:35.208Z,33.67
2022-08-26T21:40:07.774Z,33.67
2022-08-26T21:42:38.248Z,33.65
2022-08-26T21:45:11.299Z,33.63
2022-08-26T21:47:42.979Z,33.62
2022-08-26T21:50:17.013Z,33.61
2022-08-26T21:52:47.755Z,33.60
2022-08-26T21:55:18.613Z,33.61
2022-08-26T21:57:48.934Z,33.62
2022-08-26T22:00:22.240Z,33.63
2022-08-26T22:02:53.521Z,33.61
2022-08-26T22:05:26.953Z,33.62
2022-08-26T22:07:58.227Z,33.60
2022-08-26T22:10:28.907Z,33.60
2022-08-26T22:12:59.898Z,33.60
2022-08-26T22:15:33.866Z,33.62
2022-08-26T22:18:05.847Z,33.63
2022-08-26T22:20:38.598Z,33.64
2022-08-26T22:23:09.756Z,33.65
2022-08-26T22:25:40.851Z,33.66
2022-08-26T22:28:11.859Z,33.67
2022-08-26T22:30:44.554Z,33.68
2022-08-26T22:33:16.473Z,33.69
2022-08-26T22:35:51.800Z,33.68
2022-08-26T22:38:25.049Z,33.66
2022-08-26T22:40:58.716Z,33.65
2022-08-26T22:43:32.016Z,33.64
2022-08-26T22:46:03.554Z,33.62
2022-08-26T22:48:35.138Z,33.61
2022-08-26T22:51:09.060Z,33.62
2022-08-26T22:53:42.114Z,33.62
2022-08-26T22:56:13.165Z,33.62
2022-08-26T22:58:44.427Z,33.64
2022-08-26T23:01:16.107Z,33.66
2022-08-26T23:03:46.683Z,33.69
2022-08-26T23:06:20.273Z,33.70
2022-08-26T23:08:51.009Z,33.70
2022-08-26T23:11:21.809Z,33.71
2022-08-26T23:13:51.794Z,33.70
2022-08-26T23:16:23.048Z,33.72
2022-08-26T23:18:53.856Z,33.73
2022-08-26T23:21:26.473Z,33.73
2022-08-26T23:23:56.938Z,33.73
2022-08-26T23:26:27.536Z,33.73
2022-08-26T23:28:58.868Z,33.72
2022-08-26T23:31:29.560Z,33.72
2022-08-26T23:34:16.802Z,33.71
2022-08-26T23:36:50.253Z,33.70
2022-08-26T23:39:21.018Z,33.69
2022-08-26T23:41:51.826Z,33.69
2022-08-26T23:44:22.979Z,33.69
2022-08-26T23:46:53.666Z,33.69
2022-08-26T23:49:25.045Z,33.69
2022-08-26T23:52:14.363Z,33.70
2022-08-26T23:54:45.901Z,33.69
2022-08-26T23:57:17.096Z,33.69
2022-08-26T23:59:49.774Z,33.70
